createdAt,value
2023-03-02T00:01:08.395Z,98022.19
2023-03-02T00:03:42.473Z,98013.34
2023-03-02T00:06:17.510Z,98018.75
2023-03-02T00:08:50.611Z,98019.56
2023-03-02T00:11:23.800Z,98010.56
2023-03-02T00:13:57.035Z,98011.84
2023-03-02T00:16:30.652Z,98012.72
2023-03-02T00:19:04.200Z,98006.91
2023-03-02T00:21:38.573Z,98014.09
2023-03-02T00:24:11.618Z,98014.69
2023-03-02T00:26:44.897Z,98012.28
2023-03-02T00:29:18.027Z,98012.63
2023-03-02T00:31:51.251Z,98010.19
2023-03-02T00:34:24.375Z,98008.72
2023-03-02T00:36:58.820Z,98001.53
2023-03-02T00:39:31.876Z,97993.00
2023-03-02T00:42:05.231Z,97996.25
2023-03-02T00:44:38.260Z,98005.91
2023-03-02T00:47:11.345Z,98009.88
2023-03-02T00:49:48.848Z,98005.69
2023-03-02T00:52:23.468Z,98001.59
2023-03-02T00:54:56.518Z,97992.03
2023-03-02T00:57:29.666Z,97996.50
2023-03-02T01:00:02.746Z,98003.09
2023-03-02T01:02:35.993Z,97992.13
2023-03-02T01:05:10.119Z,97993.00
2023-03-02T01:07:44.546Z,97994.03
2023-03-02T01:10:17.953Z,97987.69
2023-03-02T01:12:51.011Z,97985.47
2023-03-02T01:15:24.192Z,97980.38
2023-03-02T01:17:57.220Z,97973.84
2023-03-02T01:20:30.521Z,97979.22
2023-03-02T01:23:05.086Z,97975.13
2023-03-02T01:25:39.096Z,97973.91
2023-03-02T01:28:12.119Z,97972.22
2023-03-02T01:30:45.233Z,97972.66
2023-03-02T01:33:18.284Z,97972.25
2023-03-02T01:35:51.495Z,97972.38
2023-03-02T01:38:26.080Z,97971.66
2023-03-02T01:40:59.436Z,97968.28
2023-03-02T01:43:32.548Z,97971.00
2023-03-02T01:46:11.608Z,97958.47
2023-03-02T01:48:50.369Z,97962.78
2023-03-02T01:51:26.506Z,97953.75
2023-03-02T01:54:06.078Z,97948.09
2023-03-02T01:56:41.967Z,97949.69
2023-03-02T01:59:20.220Z,97944.31
2023-03-02T02:01:56.965Z,97938.88
2023-03-02T02:04:32.164Z,97944.03
2023-03-02T02:07:08.217Z,97930.34
2023-03-02T02:09:47.413Z,97928.16
2023-03-02T02:12:23.789Z,97928.38
2023-03-02T02:15:00.705Z,97929.78
2023-03-02T02:17:34.090Z,97927.44
2023-03-02T02:20:21.048Z,97934.41
2023-03-02T02:23:27.399Z,97922.72
2023-03-02T02:26:18.508Z,97931.88
2023-03-02T02:28:58.949Z,97917.91
2023-03-02T02:31:39.271Z,97916.31
2023-03-02T02:34:22.629Z,97916.59
2023-03-02T02:37:00.634Z,97916.09
2023-03-02T02:39:38.535Z,97909.34
2023-03-02T02:42:17.056Z,97908.75
2023-03-02T02:44:50.747Z,97917.69
2023-03-02T02:47:24.040Z,97916.16
2023-03-02T02:49:58.370Z,97919.81
2023-03-02T02:52:31.483Z,97917.75
2023-03-02T02:55:04.924Z,97914.00
2023-03-02T02:57:39.564Z,97921.25
2023-03-02T03:00:20.582Z,97915.91
2023-03-02T03:02:58.658Z,97906.09
2023-03-02T03:05:31.722Z,97903.72
2023-03-02T03:08:10.844Z,97903.41
2023-03-02T03:10:45.222Z,97894.81
2023-03-02T03:13:19.620Z,97904.28
2023-03-02T03:15:52.845Z,97900.53
2023-03-02T03:18:25.890Z,97907.94
2023-03-02T03:20:59.407Z,97895.19
2023-03-02T03:23:32.721Z,97896.41
2023-03-02T03:26:06.698Z,97891.63
2023-03-02T03:28:41.130Z,97896.94
2023-03-02T03:31:14.207Z,97905.38
2023-03-02T03:33:47.271Z,97894.53
2023-03-02T03:36:20.317Z,97893.97
2023-03-02T03:38:53.364Z,97899.66
2023-03-02T03:41:26.821Z,97898.50
2023-03-02T03:44:01.504Z,97898.94
2023-03-02T03:46:35.500Z,97907.41
2023-03-02T03:49:08.862Z,97891.13
2023-03-02T03:51:41.933Z,97905.94
2023-03-02T03:54:15.356Z,97887.75
2023-03-02T03:56:50.998Z,97892.59
2023-03-02T03:59:27.135Z,97895.88
2023-03-02T04:02:03.338Z,97894.66
2023-03-02T04:04:37.042Z,97900.59
2023-03-02T04:07:10.337Z,97902.56
2023-03-02T04:09:43.938Z,97895.88
2023-03-02T04:12:16.948Z,97905.81
2023-03-02T04:14:51.320Z,97904.81
2023-03-02T04:17:24.356Z,97912.38
2023-03-02T04:19:57.536Z,97912.53
2023-03-02T04:22:30.604Z,97909.56
2023-03-02T04:25:05.118Z,97916.34
2023-03-02T04:27:38.117Z,97914.75
2023-03-02T04:30:14.910Z,97915.91
2023-03-02T04:32:48.242Z,97915.75
2023-03-02T04:35:21.949Z,97915.06
2023-03-02T04:37:55.133Z,97915.78
2023-03-02T04:40:28.461Z,97916.38
2023-03-02T04:43:01.509Z,97917.88
2023-03-02T04:45:35.940Z,97921.84
2023-03-02T04:48:09.459Z,97915.19
2023-03-02T04:50:42.561Z,97917.88
2023-03-02T04:53:15.691Z,97925.84
2023-03-02T04:55:49.170Z,97911.63
2023-03-02T04:58:22.207Z,97914.91
2023-03-02T05:01:03.626Z,97917.41
2023-03-02T05:03:36.809Z,97927.47
2023-03-02T05:06:10.248Z,97925.38
2023-03-02T05:08:43.821Z,97923.63
2023-03-02T05:11:29.853Z,97922.28
2023-03-02T05:14:07.418Z,97915.94
2023-03-02T05:16:43.473Z,97920.81
2023-03-02T05:19:16.996Z,97922.88
2023-03-02T05:21:50.129Z,97907.47
2023-03-02T05:24:23.292Z,97917.41
2023-03-02T05:26:56.350Z,97908.81
2023-03-02T05:29:29.373Z,97907.75
2023-03-02T05:32:03.884Z,97914.59
2023-03-02T05:34:36.948Z,97909.25
2023-03-02T05:37:09.959Z,97910.72
2023-03-02T05:39:43.040Z,97915.47
2023-03-02T05:42:16.115Z,97917.09
2023-03-02T05:44:49.156Z,97914.13
2023-03-02T05:47:23.532Z,97911.31
2023-03-02T05:49:56.756Z,97913.50
2023-03-02T05:52:29.829Z,97922.66
2023-03-02T05:55:02.951Z,97918.53
2023-03-02T05:57:36.024Z,97923.09
2023-03-02T06:00:11.935Z,97922.22
2023-03-02T06:02:46.596Z,97923.09
2023-03-02T06:05:22.678Z,97937.56
2023-03-02T06:07:56.136Z,97931.66
2023-03-02T06:10:29.317Z,97939.47
2023-03-02T06:13:02.406Z,97935.50
2023-03-02T06:15:35.536Z,97937.56
2023-03-02T06:18:12.318Z,97943.34
2023-03-02T06:20:45.468Z,97942.31
2023-03-02T06:23:18.484Z,97946.16
2023-03-02T06:25:51.657Z,97945.56
2023-03-02T06:28:25.431Z,97954.47
2023-03-02T06:31:00.409Z,97944.13
2023-03-02T06:33:34.813Z,97946.03
2023-03-02T06:36:08.105Z,97952.59
2023-03-02T06:38:41.311Z,97952.16
2023-03-02T06:41:14.327Z,97953.94
2023-03-02T06:43:47.826Z,97950.69
2023-03-02T06:46:20.865Z,97953.94
2023-03-02T06:48:55.279Z,97957.31
2023-03-02T06:51:28.284Z,97957.75
2023-03-02T06:54:01.543Z,97948.22
2023-03-02T06:56:35.192Z,97952.78
2023-03-02T06:59:08.378Z,97956.47
2023-03-02T07:01:41.964Z,97962.91
2023-03-02T07:04:16.520Z,97966.53
2023-03-02T07:06:49.604Z,97965.56
2023-03-02T07:09:23.213Z,97969.84
2023-03-02T07:11:56.245Z,97974.44
2023-03-02T07:14:29.265Z,97965.19
2023-03-02T07:17:02.338Z,97970.09
2023-03-02T07:19:40.706Z,97968.47
2023-03-02T07:22:13.995Z,97978.41
2023-03-02T07:24:47.049Z,97971.97
2023-03-02T07:27:20.079Z,97962.41
2023-03-02T07:29:53.142Z,97966.66
2023-03-02T07:32:26.254Z,97964.50
2023-03-02T07:35:00.762Z,97967.53
2023-03-02T07:37:33.792Z,97965.75
2023-03-02T07:40:08.552Z,97966.16
2023-03-02T07:42:41.701Z,97964.66
2023-03-02T07:45:16.807Z,97968.72
2023-03-02T07:47:49.906Z,97965.44
2023-03-02T07:50:24.275Z,97964.53
2023-03-02T07:52:59.839Z,97962.78
2023-03-02T07:55:33.069Z,97967.81
2023-03-02T07:58:06.105Z,97972.25
2023-03-02T08:00:41.777Z,97971.34
2023-03-02T08:03:15.665Z,97975.22
2023-03-02T08:05:50.084Z,97966.03
2023-03-02T08:08:23.373Z,97964.91
2023-03-02T08:10:56.361Z,97967.53
2023-03-02T08:13:29.392Z,97966.50
2023-03-02T08:16:03.880Z,97976.16
2023-03-02T08:18:38.094Z,97971.09
2023-03-02T08:21:18.551Z,97978.84
2023-03-02T08:23:52.202Z,97964.81
2023-03-02T08:26:25.334Z,97967.00
2023-03-02T08:28:58.414Z,97965.03
2023-03-02T08:31:32.026Z,97956.56
2023-03-02T08:34:05.891Z,97960.03
2023-03-02T08:36:41.081Z,97961.38
2023-03-02T08:39:14.447Z,97952.78
2023-03-02T08:41:47.476Z,97945.16
2023-03-02T08:44:22.148Z,97942.63
2023-03-02T08:46:55.573Z,97941.72
2023-03-02T08:49:28.695Z,97935.63
2023-03-02T08:52:03.093Z,97932.13
2023-03-02T08:54:36.232Z,97930.66
2023-03-02T08:57:12.708Z,97934.59
2023-03-02T08:59:45.761Z,97930.94
2023-03-02T09:02:18.875Z,97929.50
2023-03-02T09:04:51.997Z,97934.16
2023-03-02T09:07:26.472Z,97922.53
2023-03-02T09:09:59.576Z,97921.16
2023-03-02T09:12:32.623Z,97922.66
2023-03-02T09:15:07.144Z,97915.22
2023-03-02T09:17:40.171Z,97911.41
2023-03-02T09:20:14.377Z,97909.13
2023-03-02T09:22:50.863Z,97919.75
2023-03-02T09:25:23.971Z,97915.28
2023-03-02T09:27:57.017Z,97915.78
2023-03-02T09:30:30.101Z,97913.56
2023-03-02T09:33:03.384Z,97915.53
2023-03-02T09:35:36.550Z,97915.81
2023-03-02T09:38:12.888Z,97917.56
2023-03-02T09:41:08.503Z,97912.81
2023-03-02T09:43:49.796Z,97915.06
2023-03-02T09:46:27.781Z,97919.28
2023-03-02T09:49:15.467Z,97918.91
2023-03-02T09:52:01.692Z,97918.44
2023-03-02T09:54:38.062Z,97919.81
2023-03-02T09:57:22.685Z,97922.06
2023-03-02T10:00:09.446Z,97924.31
2023-03-02T10:02:52.368Z,97917.56
2023-03-02T10:05:30.746Z,97919.81
2023-03-02T10:08:03.870Z,97927.56
2023-03-02T10:10:45.361Z,97926.69
2023-03-02T10:13:25.421Z,97929.69
2023-03-02T10:16:14.190Z,97924.19
2023-03-02T10:18:52.254Z,97922.19
2023-03-02T10:21:31.055Z,97928.06
2023-03-02T10:24:16.248Z,97933.59
2023-03-02T10:26:54.970Z,97936.28
2023-03-02T10:29:51.239Z,97931.25
2023-03-02T10:32:26.753Z,97929.53
2023-03-02T10:35:03.805Z,97928.16
2023-03-02T10:37:36.972Z,97914.41
2023-03-02T10:40:27.449Z,97926.94
2023-03-02T10:43:02.258Z,97921.19
2023-03-02T10:45:35.569Z,97919.47
2023-03-02T10:48:12.463Z,97922.22
2023-03-02T10:50:45.802Z,97915.66
2023-03-02T10:53:19.886Z,97912.81
2023-03-02T10:55:54.754Z,97907.50
2023-03-02T10:58:34.074Z,97907.69
2023-03-02T11:01:18.374Z,97903.03
2023-03-02T11:03:59.156Z,97908.81
2023-03-02T11:06:33.467Z,97890.00
2023-03-02T11:09:09.571Z,97895.63
2023-03-02T11:11:51.311Z,97887.25
2023-03-02T11:14:25.879Z,97885.78
2023-03-02T11:17:02.426Z,97886.94
2023-03-02T11:19:38.910Z,97889.41
2023-03-02T11:22:27.198Z,97892.47
2023-03-02T11:25:04.917Z,97886.56
2023-03-02T11:27:42.639Z,97886.59
2023-03-02T11:30:22.691Z,97882.94
2023-03-02T11:33:03.799Z,97882.56
2023-03-02T11:35:44.773Z,97877.78
2023-03-02T11:38:24.913Z,97880.13
2023-03-02T11:41:03.123Z,97881.00
2023-03-02T11:43:36.219Z,97870.09
2023-03-02T11:46:26.180Z,97880.22
2023-03-02T11:49:05.602Z,97871.66
2023-03-02T11:51:50.093Z,97871.59
2023-03-02T11:54:41.806Z,97866.34
2023-03-02T11:57:24.298Z,97872.28
2023-03-02T11:59:59.419Z,97871.59
2023-03-02T12:02:33.861Z,97872.38
2023-03-02T12:05:25.332Z,97864.25
2023-03-02T12:08:00.412Z,97870.72
2023-03-02T12:10:39.765Z,97863.03
2023-03-02T12:13:18.681Z,97863.06
2023-03-02T12:15:52.364Z,97863.66
2023-03-02T12:18:51.139Z,97857.66
2023-03-02T12:21:27.136Z,97856.63
2023-03-02T12:24:04.040Z,97862.47
2023-03-02T12:26:38.915Z,97856.63
2023-03-02T12:29:25.156Z,97857.88
2023-03-02T12:31:58.596Z,97853.56
2023-03-02T12:34:39.076Z,97848.75
2023-03-02T12:37:19.968Z,97848.56
2023-03-02T12:40:34.251Z,97844.91
2023-03-02T12:43:31.362Z,97850.44
2023-03-02T12:46:31.876Z,97850.16
2023-03-02T12:49:35.390Z,97844.09
2023-03-02T12:52:27.160Z,97842.53
2023-03-02T12:55:03.229Z,97832.09
2023-03-02T12:57:39.740Z,97834.47
2023-03-02T13:00:19.003Z,97827.94
2023-03-02T13:02:55.118Z,97832.28
2023-03-02T13:05:31.551Z,97835.97
2023-03-02T13:08:08.806Z,97829.59
2023-03-02T13:10:44.052Z,97825.56
2023-03-02T13:13:20.357Z,97818.78
2023-03-02T13:15:57.297Z,97830.03
2023-03-02T13:18:33.790Z,97821.09
2023-03-02T13:21:07.977Z,97820.22
2023-03-02T13:23:47.326Z,97815.34
2023-03-02T13:26:28.455Z,97812.19
2023-03-02T13:29:04.178Z,97819.81
2023-03-02T13:31:37.669Z,97814.22
2023-03-02T13:34:23.170Z,97823.97
2023-03-02T13:36:56.393Z,97815.56
2023-03-02T13:39:32.580Z,97814.72
2023-03-02T13:42:05.871Z,97806.94
2023-03-02T13:44:38.972Z,97806.91
2023-03-02T13:47:23.815Z,97808.84
2023-03-02T13:50:08.620Z,97806.44
2023-03-02T13:52:41.904Z,97807.97
2023-03-02T13:55:19.184Z,97804.53
2023-03-02T13:57:56.149Z,97803.31
2023-03-02T14:00:34.428Z,97805.09
2023-03-02T14:03:23.330Z,97800.69
2023-03-02T14:05:58.641Z,97808.53
2023-03-02T14:08:32.315Z,97800.03
2023-03-02T14:11:07.763Z,97799.97
2023-03-02T14:13:45.137Z,97799.81
2023-03-02T14:16:19.035Z,97802.81
2023-03-02T14:18:53.438Z,97796.84
2023-03-02T14:21:27.477Z,97798.25
2023-03-02T14:24:00.660Z,97799.06
2023-03-02T14:26:38.194Z,97802.53
2023-03-02T14:29:23.219Z,97800.50
2023-03-02T14:31:57.494Z,97800.69
2023-03-02T14:34:30.784Z,97810.63
2023-03-02T14:37:07.476Z,97795.53
2023-03-02T14:39:43.392Z,97802.69
2023-03-02T14:42:21.236Z,97806.28
2023-03-02T14:44:54.421Z,97798.50
2023-03-02T14:47:27.597Z,97798.91
2023-03-02T14:50:00.623Z,97796.03
2023-03-02T14:52:38.387Z,97788.97
2023-03-02T14:55:18.350Z,97792.22
2023-03-02T14:57:57.404Z,97783.94
2023-03-02T15:00:30.600Z,97788.34
2023-03-02T15:03:03.761Z,97790.91
2023-03-02T15:05:36.845Z,97786.81
2023-03-02T15:08:13.700Z,97791.53
2023-03-02T15:10:47.417Z,97792.72
2023-03-02T15:13:22.529Z,97793.47
2023-03-02T15:15:55.649Z,97792.13
2023-03-02T15:18:28.789Z,97796.31
2023-03-02T15:21:01.846Z,97798.75
2023-03-02T15:23:35.164Z,97795.72
2023-03-02T15:26:08.216Z,97798.13
2023-03-02T15:28:42.955Z,97794.09
2023-03-02T15:31:18.142Z,97795.72
2023-03-02T15:33:52.119Z,97798.63
2023-03-02T15:36:26.405Z,97791.72
2023-03-02T15:38:59.621Z,97789.25
2023-03-02T15:41:32.842Z,97791.91
2023-03-02T15:44:07.686Z,97790.09
2023-03-02T15:46:40.922Z,97789.03
2023-03-02T15:49:14.061Z,97793.22
2023-03-02T15:51:47.124Z,97798.19
2023-03-02T15:54:20.468Z,97790.03
2023-03-02T15:56:53.633Z,97797.25
2023-03-02T15:59:30.628Z,97786.53
2023-03-02T16:02:03.702Z,97794.22
2023-03-02T16:04:36.780Z,97795.25
2023-03-02T16:07:09.918Z,97798.84
2023-03-02T16:09:45.296Z,97800.06
2023-03-02T16:12:20.424Z,97803.56
2023-03-02T16:14:54.837Z,97806.50
2023-03-02T16:17:28.022Z,97810.59
2023-03-02T16:20:01.038Z,97815.63
2023-03-02T16:22:34.116Z,97818.56
2023-03-02T16:25:07.816Z,97817.09
2023-03-02T16:27:40.866Z,97822.22
2023-03-02T16:30:16.400Z,97827.31
2023-03-02T16:32:49.441Z,97832.28
2023-03-02T16:35:22.811Z,97832.84
2023-03-02T16:37:56.290Z,97832.75
2023-03-02T16:40:29.951Z,97836.75
2023-03-02T16:43:03.009Z,97843.94
2023-03-02T16:45:37.984Z,97850.97
2023-03-02T16:48:11.515Z,97848.78
2023-03-02T16:50:44.888Z,97856.63
2023-03-02T16:53:19.406Z,97855.34
2023-03-02T16:55:52.428Z,97858.28
2023-03-02T16:58:25.952Z,97855.97
2023-03-02T17:01:00.977Z,97860.59
2023-03-02T17:03:34.251Z,97862.69
2023-03-02T17:06:08.922Z,97867.44
2023-03-02T17:08:42.726Z,97869.66
2023-03-02T17:11:15.940Z,97871.88
2023-03-02T17:13:49.024Z,97872.41
2023-03-02T17:16:24.859Z,97876.47
2023-03-02T17:18:57.904Z,97879.38
2023-03-02T17:21:30.959Z,97886.75
2023-03-02T17:24:04.185Z,97891.50
2023-03-02T17:26:37.443Z,97898.91
2023-03-02T17:29:10.461Z,97901.06
2023-03-02T17:31:44.872Z,97905.72
2023-03-02T17:34:17.945Z,97908.97
2023-03-02T17:36:51.021Z,97913.56
2023-03-02T17:39:24.601Z,97923.38
2023-03-02T17:41:57.635Z,97926.53
2023-03-02T17:44:33.008Z,97924.38
2023-03-02T17:47:08.291Z,97927.44
2023-03-02T17:49:43.657Z,97929.31
2023-03-02T17:52:19.083Z,97933.84
2023-03-02T17:54:54.093Z,97939.69
2023-03-02T17:57:27.959Z,97943.25
2023-03-02T18:00:01.151Z,97950.31
2023-03-02T18:02:35.990Z,97952.47
2023-03-02T18:05:11.094Z,97951.09
2023-03-02T18:07:44.142Z,97951.25
2023-03-02T18:10:17.373Z,97956.56
2023-03-02T18:12:52.768Z,97964.59
2023-03-02T18:15:29.098Z,97964.88
2023-03-02T18:18:03.720Z,97966.31
2023-03-02T18:20:37.170Z,97968.13
2023-03-02T18:23:12.415Z,97971.91
2023-03-02T18:25:45.444Z,97973.63
2023-03-02T18:28:18.611Z,97974.78
2023-03-02T18:30:51.809Z,97982.00
2023-03-02T18:33:26.232Z,97981.38
2023-03-02T18:36:00.508Z,97975.91
2023-03-02T18:38:34.406Z,97981.25
2023-03-02T18:41:09.161Z,97994.22
2023-03-02T18:43:43.312Z,97994.56
2023-03-02T18:46:23.461Z,97995.59
2023-03-02T18:49:00.495Z,97989.88
2023-03-02T18:51:33.587Z,97993.16
2023-03-02T18:54:07.555Z,97999.72
2023-03-02T18:56:40.742Z,98004.59
2023-03-02T18:59:13.998Z,98003.59
2023-03-02T19:01:47.594Z,98008.44
2023-03-02T19:04:26.254Z,98003.16
2023-03-02T19:07:00.806Z,98003.81
2023-03-02T19:09:34.667Z,98008.91
2023-03-02T19:12:07.978Z,98015.88
2023-03-02T19:14:43.394Z,98011.16
2023-03-02T19:17:16.576Z,98017.53
2023-03-02T19:19:51.243Z,98010.88
2023-03-02T19:22:24.316Z,98014.66
2023-03-02T19:24:57.356Z,98026.78
2023-03-02T19:27:30.394Z,98028.78
2023-03-02T19:30:03.641Z,98022.34
2023-03-02T19:32:36.739Z,98025.63
2023-03-02T19:35:14.532Z,98031.69
2023-03-02T19:37:47.748Z,98031.09
2023-03-02T19:40:24.676Z,98033.94
2023-03-02T19:42:58.153Z,98034.34
2023-03-02T19:45:35.618Z,98033.13
2023-03-02T19:48:13.524Z,98037.16
2023-03-02T19:50:48.282Z,98034.16
2023-03-02T19:53:21.789Z,98034.56
2023-03-02T19:55:54.861Z,98034.31
2023-03-02T19:58:28.553Z,98043.88
2023-03-02T20:01:01.793Z,98042.09
2023-03-02T20:03:34.864Z,98037.56
2023-03-02T20:06:09.428Z,98037.97
2023-03-02T20:08:42.472Z,98042.69
2023-03-02T20:11:15.668Z,98040.31
2023-03-02T20:13:50.592Z,98045.00
2023-03-02T20:16:24.902Z,98048.84
2023-03-02T20:18:58.336Z,98049.75
2023-03-02T20:21:34.555Z,98052.19
2023-03-02T20:24:08.243Z,98056.75
2023-03-02T20:26:41.587Z,98047.13
2023-03-02T20:29:16.175Z,98058.31
2023-03-02T20:31:49.629Z,98062.72
2023-03-02T20:34:22.856Z,98064.13
2023-03-02T20:36:57.430Z,98070.56
2023-03-02T20:39:33.921Z,98070.97
2023-03-02T20:42:08.224Z,98073.75
2023-03-02T20:44:41.763Z,98072.63
2023-03-02T20:47:17.129Z,98084.13
2023-03-02T20:49:50.313Z,98077.81
2023-03-02T20:52:25.009Z,98077.03
2023-03-02T20:54:58.198Z,98079.56
2023-03-02T20:57:31.282Z,98082.34
2023-03-02T21:00:20.631Z,98081.22
2023-03-02T21:02:53.802Z,98082.59
2023-03-02T21:05:29.223Z,98085.63
2023-03-02T21:08:03.947Z,98085.38
2023-03-02T21:10:39.637Z,98086.63
2023-03-02T21:13:13.266Z,98090.53
2023-03-02T21:15:46.737Z,98095.97
2023-03-02T21:18:19.845Z,98097.22
2023-03-02T21:20:52.934Z,98095.53
2023-03-02T21:23:27.787Z,98102.38
2023-03-02T21:26:00.899Z,98095.91
2023-03-02T21:28:33.968Z,98093.59
2023-03-02T21:31:07.426Z,98101.53
2023-03-02T21:33:40.598Z,98102.41
2023-03-02T21:36:18.284Z,98100.84
2023-03-02T21:38:53.956Z,98096.28
2023-03-02T21:41:27.298Z,98096.28
2023-03-02T21:44:00.368Z,98094.22
2023-03-02T21:46:36.552Z,98101.41
2023-03-02T21:49:09.680Z,98095.06
2023-03-02T21:51:42.806Z,98097.31
2023-03-02T21:54:17.392Z,98092.00
2023-03-02T21:56:50.534Z,98097.41
2023-03-02T21:59:23.606Z,98095.06
2023-03-02T22:01:56.666Z,98098.72
2023-03-02T22:04:30.338Z,98100.81
2023-03-02T22:07:03.368Z,98102.03
2023-03-02T22:09:37.853Z,98098.00
2023-03-02T22:12:14.587Z,98094.06
2023-03-02T22:14:47.645Z,98100.22
2023-03-02T22:17:24.814Z,98104.84
2023-03-02T22:19:58.009Z,98101.44
2023-03-02T22:22:31.085Z,98095.34
2023-03-02T22:25:17.608Z,98093.03
2023-03-02T22:27:50.657Z,98094.00
2023-03-02T22:30:25.108Z,98089.41
2023-03-02T22:32:58.234Z,98091.91
2023-03-02T22:35:31.338Z,98092.25
2023-03-02T22:38:15.251Z,98090.75
2023-03-02T22:40:49.680Z,98096.13
2023-03-02T22:43:29.306Z,98090.81
2023-03-02T22:46:15.569Z,98086.97
2023-03-02T22:48:51.607Z,98090.00
2023-03-02T22:51:27.934Z,98099.91
2023-03-02T22:54:02.409Z,98096.78
2023-03-02T22:56:38.609Z,98096.53
2023-03-02T22:59:21.542Z,98106.06
2023-03-02T23:01:55.705Z,98098.94
2023-03-02T23:04:33.242Z,98096.84
2023-03-02T23:07:17.656Z,98104.47
2023-03-02T23:09:50.734Z,98109.34
2023-03-02T23:12:28.454Z,98113.44
2023-03-02T23:15:01.796Z,98117.44
2023-03-02T23:17:38.769Z,98126.94
2023-03-02T23:20:15.570Z,98123.09
2023-03-02T23:22:50.028Z,98129.91
2023-03-02T23:25:23.041Z,98118.66
2023-03-02T23:27:57.451Z,98119.72
2023-03-02T23:30:30.569Z,98120.63
2023-03-02T23:33:03.881Z,98118.88
2023-03-02T23:35:37.197Z,98117.84
2023-03-02T23:38:10.356Z,98119.03
2023-03-02T23:40:43.677Z,98115.34
2023-03-02T23:43:18.109Z,98109.69
2023-03-02T23:45:51.354Z,98115.47
2023-03-02T23:48:24.494Z,98109.84
2023-03-02T23:50:57.761Z,98105.56
2023-03-02T23:53:30.842Z,98109.13
2023-03-02T23:56:04.042Z,98109.25
2023-03-02T23:58:38.861Z,98110.44
